createdAt,value
2019-01-28T00:00:17.906Z,101454.67
2019-01-28T00:02:58.734Z,101463.08
2019-01-28T00:05:40.762Z,101468.73
2019-01-28T00:08:23.111Z,101479.51
2019-01-28T00:11:05.030Z,101481.44
2019-01-28T00:13:46.524Z,101484.91
2019-01-28T00:16:28.163Z,101489.34
2019-01-28T00:19:09.708Z,101496.42
2019-01-28T00:21:50.701Z,101502.41
2019-01-28T00:24:31.764Z,101514.04
2019-01-28T00:27:13.307Z,101509.25
2019-01-28T00:29:56.288Z,101516.78
2019-01-28T00:32:37.456Z,101517.87
2019-01-28T00:35:18.531Z,101515.59
2019-01-28T00:37:59.299Z,101512.00
2019-01-28T00:40:41.270Z,101523.15
2019-01-28T00:43:21.793Z,101518.94
2019-01-28T00:46:03.381Z,101525.79
2019-01-28T00:48:44.664Z,101534.89
2019-01-28T00:51:26.105Z,101539.46
2019-01-28T00:54:07.286Z,101538.27
2019-01-28T00:56:48.944Z,101544.60
2019-01-28T00:59:30.215Z,101547.97
2019-01-28T01:02:11.151Z,101555.76
2019-01-28T01:04:52.116Z,101552.65
2019-01-28T01:07:34.782Z,101551.08
2019-01-28T01:10:15.845Z,101550.84
2019-01-28T01:13:00.590Z,101557.44
2019-01-28T01:15:42.926Z,101562.01
2019-01-28T01:18:23.916Z,101566.16
2019-01-28T01:21:05.034Z,101577.55
2019-01-28T01:23:46.822Z,101577.69
2019-01-28T01:26:28.561Z,101587.41
2019-01-28T01:29:09.268Z,101594.23
2019-01-28T01:31:50.362Z,101590.28
2019-01-28T01:34:31.081Z,101589.10
2019-01-28T01:37:12.703Z,101593.41
2019-01-28T01:39:54.498Z,101596.17
2019-01-28T01:42:35.542Z,101615.74
2019-01-28T01:45:16.540Z,101636.13
2019-01-28T01:48:00.299Z,101639.12
2019-01-28T01:50:43.336Z,101633.36
2019-01-28T01:53:27.701Z,101635.91
2019-01-28T01:56:08.663Z,101629.05
2019-01-28T01:58:49.500Z,101616.70
2019-01-28T02:01:31.226Z,101617.56
2019-01-28T02:04:12.071Z,101633.89
2019-01-28T02:06:53.494Z,101645.28
2019-01-28T02:09:34.443Z,101657.37
2019-01-28T02:12:15.355Z,101667.37
2019-01-28T02:14:56.672Z,101663.77
2019-01-28T02:17:37.905Z,101661.84
2019-01-28T02:20:18.650Z,101662.81
2019-01-28T02:22:59.610Z,101667.73
2019-01-28T02:25:40.404Z,101676.59
2019-01-28T02:28:22.576Z,101682.00
2019-01-28T02:31:03.371Z,101688.09
2019-01-28T02:33:44.419Z,101688.22
2019-01-28T02:36:24.861Z,101685.31
2019-01-28T02:39:06.289Z,101685.44
2019-01-28T02:41:47.076Z,101685.21
2019-01-28T02:44:28.952Z,101687.02
2019-01-28T02:47:10.613Z,101694.47
2019-01-28T02:49:51.776Z,101701.86
2019-01-28T02:52:33.611Z,101699.47
2019-01-28T02:55:15.010Z,101707.06
2019-01-28T02:57:56.293Z,101711.70
2019-01-28T03:00:37.446Z,101728.43
2019-01-28T03:03:18.583Z,101729.76
2019-01-28T03:05:59.405Z,101733.57
2019-01-28T03:08:40.521Z,101739.32
2019-01-28T03:11:22.034Z,101742.13
2019-01-28T03:14:02.895Z,101760.36
2019-01-28T03:16:43.901Z,101772.98
2019-01-28T03:19:24.944Z,101779.26
2019-01-28T03:22:05.826Z,101787.87
2019-01-28T03:24:46.885Z,101789.73
2019-01-28T03:27:28.500Z,101798.05
2019-01-28T03:30:09.380Z,101808.20
2019-01-28T03:32:50.590Z,101805.48
2019-01-28T03:35:31.485Z,101803.80
2019-01-28T03:38:12.347Z,101800.78
2019-01-28T03:40:53.143Z,101787.69
2019-01-28T03:43:34.120Z,101787.59
2019-01-28T03:46:15.055Z,101776.50
2019-01-28T03:51:10.886Z,101783.81
2019-01-28T03:53:52.058Z,101787.64
2019-01-28T03:56:32.989Z,101791.96
2019-01-28T03:59:14.175Z,101791.47
2019-01-28T04:01:55.893Z,101787.66
2019-01-28T04:04:37.489Z,101791.05
2019-01-28T04:07:18.461Z,101789.13
2019-01-28T04:10:00.476Z,101799.98
2019-01-28T04:12:41.823Z,101800.13
2019-01-28T04:15:22.508Z,101799.33
2019-01-28T04:18:03.497Z,101787.47
2019-01-28T04:20:43.898Z,101787.70
2019-01-28T04:23:24.770Z,101789.37
2019-01-28T04:26:05.434Z,101787.77
2019-01-28T04:28:46.141Z,101782.17
2019-01-28T04:31:28.170Z,101776.14
2019-01-28T04:34:08.484Z,101779.22
2019-01-28T04:36:49.338Z,101793.86
2019-01-28T04:39:30.344Z,101797.41
2019-01-28T04:42:11.135Z,101785.53
2019-01-28T04:44:52.166Z,101775.72
2019-01-28T04:47:33.261Z,101777.77
2019-01-28T04:50:14.081Z,101775.75
2019-01-28T04:52:55.108Z,101776.78
2019-01-28T04:55:36.369Z,101782.34
2019-01-28T04:58:16.994Z,101777.10
2019-01-28T05:00:58.219Z,101776.09
2019-01-28T05:03:39.298Z,101771.97
2019-01-28T05:06:20.460Z,101778.95
2019-01-28T05:09:01.542Z,101772.25
2019-01-28T05:11:41.829Z,101772.57
2019-01-28T05:14:22.461Z,101759.48
2019-01-28T05:17:02.772Z,101758.64
2019-01-28T05:19:43.166Z,101749.12
2019-01-28T05:22:23.855Z,101750.91
2019-01-28T05:25:04.824Z,101740.88
2019-01-28T05:27:45.431Z,101734.50
2019-01-28T05:30:26.094Z,101724.44
2019-01-28T05:33:08.686Z,101728.53
2019-01-28T05:35:48.091Z,101722.27
2019-01-28T05:38:30.960Z,101719.16
2019-01-28T05:41:12.095Z,101719.77
2019-01-28T05:43:52.690Z,101720.59
2019-01-28T05:46:33.436Z,101719.80
2019-01-28T05:49:14.316Z,101717.75
2019-01-28T05:51:55.095Z,101719.00
2019-01-28T05:54:36.169Z,101711.52
2019-01-28T05:57:16.837Z,101707.45
2019-01-28T05:59:57.589Z,101706.18
2019-01-28T06:02:38.412Z,101708.30
2019-01-28T06:05:19.033Z,101702.55
2019-01-28T06:08:00.342Z,101709.71
2019-01-28T06:10:41.101Z,101717.98
2019-01-28T06:13:22.045Z,101722.16
2019-01-28T06:16:02.429Z,101707.14
2019-01-28T06:18:43.473Z,101694.84
2019-01-28T06:21:24.120Z,101691.66
2019-01-28T06:24:04.631Z,101689.12
2019-01-28T06:26:45.267Z,101685.39
2019-01-28T06:29:26.000Z,101672.43
2019-01-28T06:32:07.075Z,101673.06
2019-01-28T06:34:47.457Z,101677.57
2019-01-28T06:37:28.342Z,101671.97
2019-01-28T06:40:09.224Z,101666.41
2019-01-28T06:42:49.798Z,101656.04
2019-01-28T06:45:30.676Z,101649.38
2019-01-28T06:48:11.641Z,101642.84
2019-01-28T06:50:52.854Z,101638.77
2019-01-28T06:53:33.576Z,101630.20
2019-01-28T06:56:13.946Z,101615.72
2019-01-28T06:58:55.089Z,101608.02
2019-01-28T07:01:35.828Z,101600.64
2019-01-28T07:04:16.142Z,101601.48
2019-01-28T07:06:57.034Z,101598.74
2019-01-28T07:09:38.273Z,101585.30
2019-01-28T07:12:18.830Z,101579.38
2019-01-28T07:14:59.518Z,101566.30
2019-01-28T07:17:39.980Z,101567.10
2019-01-28T07:20:20.243Z,101555.86
2019-01-28T07:23:00.716Z,101551.22
2019-01-28T07:25:41.252Z,101534.70
2019-01-28T07:28:22.003Z,101524.06
2019-01-28T07:31:02.174Z,101517.15
2019-01-28T07:33:42.807Z,101515.55
2019-01-28T07:36:23.659Z,101513.11
2019-01-28T07:39:03.819Z,101512.07
2019-01-28T07:41:44.086Z,101513.05
2019-01-28T07:44:24.536Z,101495.98
2019-01-28T07:47:04.853Z,101496.30
2019-01-28T07:49:45.318Z,101489.86
2019-01-28T07:52:25.667Z,101485.17
2019-01-28T07:55:06.064Z,101475.39
2019-01-28T07:57:46.200Z,101483.08
2019-01-28T08:00:26.988Z,101478.89
2019-01-28T08:03:07.035Z,101488.74
2019-01-28T08:05:47.350Z,101483.73
2019-01-28T08:08:27.931Z,101478.41
2019-01-28T08:11:08.302Z,101466.56
2019-01-28T08:13:48.861Z,101472.16
2019-01-28T08:16:29.544Z,101463.25
2019-01-28T08:19:09.896Z,101464.61
2019-01-28T08:21:50.875Z,101464.13
2019-01-28T08:24:31.019Z,101468.02
2019-01-28T08:27:12.042Z,101468.04
2019-01-28T08:29:52.434Z,101462.58
2019-01-28T08:32:32.504Z,101462.02
2019-01-28T08:35:12.850Z,101459.30
2019-01-28T08:37:53.933Z,101442.68
2019-01-28T08:40:34.896Z,101451.01
2019-01-28T08:43:15.586Z,101449.38
2019-01-28T08:45:55.783Z,101450.58
2019-01-28T08:48:36.130Z,101436.40
2019-01-28T08:51:16.318Z,101418.42
2019-01-28T08:53:56.582Z,101419.25
2019-01-28T08:56:36.899Z,101422.91
2019-01-28T08:59:17.368Z,101420.06
2019-01-28T09:01:57.889Z,101426.38
2019-01-28T09:04:38.881Z,101415.03
2019-01-28T09:07:19.199Z,101407.36
2019-01-28T09:09:59.644Z,101398.88
2019-01-28T09:12:40.258Z,101398.70
2019-01-28T09:15:20.398Z,101395.19
2019-01-28T09:18:00.996Z,101395.05
2019-01-28T09:20:41.583Z,101401.03
2019-01-28T09:23:22.342Z,101404.20
2019-01-28T09:26:03.617Z,101396.69
2019-01-28T09:28:44.223Z,101402.34
2019-01-28T09:31:25.094Z,101382.52
2019-01-28T09:34:06.208Z,101378.03
2019-01-28T09:36:47.424Z,101373.23
2019-01-28T09:39:30.784Z,101373.23
2019-01-28T09:42:12.130Z,101379.27
2019-01-28T09:44:52.553Z,101385.41
2019-01-28T09:47:33.300Z,101395.87
2019-01-28T09:50:13.760Z,101393.72
2019-01-28T09:52:54.449Z,101406.55
2019-01-28T09:55:34.849Z,101413.34
2019-01-28T09:58:15.476Z,101412.47
2019-01-28T10:00:56.637Z,101404.38
2019-01-28T10:03:37.533Z,101406.27
2019-01-28T10:06:18.308Z,101407.56
2019-01-28T10:08:59.638Z,101413.15
2019-01-28T10:11:40.139Z,101411.65
2019-01-28T10:14:21.112Z,101412.64
2019-01-28T10:17:02.132Z,101399.71
2019-01-28T10:19:43.387Z,101393.27
2019-01-28T10:22:24.939Z,101392.27
2019-01-28T10:25:05.935Z,101384.11
2019-01-28T10:27:46.847Z,101375.23
2019-01-28T10:30:28.163Z,101371.55
2019-01-28T10:33:08.764Z,101363.14
2019-01-28T10:35:49.434Z,101352.30
2019-01-28T10:38:30.492Z,101356.41
2019-01-28T10:41:11.355Z,101359.53
2019-01-28T10:43:51.936Z,101356.45
2019-01-28T10:46:32.958Z,101357.23
2019-01-28T10:49:14.041Z,101352.66
2019-01-28T10:51:55.203Z,101350.83
2019-01-28T10:54:36.120Z,101345.97
2019-01-28T10:57:16.894Z,101337.11
2019-01-28T10:59:57.424Z,101328.34
2019-01-28T11:02:38.445Z,101329.28
2019-01-28T11:05:19.691Z,101336.20
2019-01-28T11:08:00.778Z,101331.55
2019-01-28T11:10:41.906Z,101325.86
2019-01-28T11:13:22.706Z,101324.17
2019-01-28T11:16:03.820Z,101330.92
2019-01-28T11:18:44.826Z,101338.78
2019-01-28T11:21:26.078Z,101351.98
2019-01-28T11:24:06.734Z,101351.45
2019-01-28T11:26:47.418Z,101348.35
2019-01-28T11:29:28.133Z,101331.48
2019-01-28T11:32:09.094Z,101341.70
2019-01-28T11:34:50.548Z,101338.97
2019-01-28T11:37:31.591Z,101337.55
2019-01-28T11:40:12.288Z,101337.80
2019-01-28T11:42:53.147Z,101334.98
2019-01-28T11:45:33.468Z,101335.59
2019-01-28T11:48:14.817Z,101338.49
2019-01-28T11:50:56.107Z,101340.55
2019-01-28T11:53:37.360Z,101338.55
2019-01-28T11:56:18.522Z,101352.00
2019-01-28T11:58:59.400Z,101360.78
2019-01-28T12:01:40.466Z,101358.49
2019-01-28T12:04:21.142Z,101358.20
2019-01-28T12:07:02.383Z,101344.25
2019-01-28T12:09:43.415Z,101349.49
2019-01-28T12:12:24.382Z,101355.27
2019-01-28T12:15:05.582Z,101357.44
2019-01-28T12:17:46.437Z,101359.69
2019-01-28T12:20:27.606Z,101358.57
2019-01-28T12:23:08.448Z,101362.22
2019-01-28T12:25:49.436Z,101365.13
2019-01-28T12:28:30.046Z,101353.42
2019-01-28T12:31:10.671Z,101359.95
2019-01-28T12:33:51.647Z,101365.58
2019-01-28T12:36:32.727Z,101372.78
2019-01-28T12:39:14.217Z,101368.91
2019-01-28T12:41:55.021Z,101377.28
2019-01-28T12:44:35.861Z,101371.60
2019-01-28T12:47:16.840Z,101378.27
2019-01-28T12:49:58.068Z,101382.27
2019-01-28T12:52:39.335Z,101393.14
2019-01-28T12:55:20.366Z,101389.70
2019-01-28T12:58:01.331Z,101402.47
2019-01-28T13:00:42.232Z,101403.04
2019-01-28T13:03:23.329Z,101410.90
2019-01-28T13:06:04.368Z,101409.82
2019-01-28T13:08:45.437Z,101407.28
2019-01-28T13:11:26.383Z,101413.85
2019-01-28T13:14:07.962Z,101412.29
2019-01-28T13:16:48.968Z,101429.61
2019-01-28T13:19:30.225Z,101427.45
2019-01-28T13:22:11.539Z,101426.09
2019-01-28T13:24:52.769Z,101434.86
2019-01-28T13:27:33.321Z,101435.56
2019-01-28T13:30:14.481Z,101442.30
2019-01-28T13:32:55.668Z,101430.30
2019-01-28T13:35:36.729Z,101421.05
2019-01-28T13:38:17.476Z,101428.73
2019-01-28T13:40:58.658Z,101430.72
2019-01-28T13:43:40.128Z,101421.95
2019-01-28T13:46:21.130Z,101418.20
2019-01-28T13:49:02.042Z,101410.41
2019-01-28T13:51:43.080Z,101410.06
2019-01-28T13:54:23.841Z,101412.08
2019-01-28T13:57:04.903Z,101413.16
2019-01-28T13:59:45.390Z,101419.18
2019-01-28T14:02:26.558Z,101411.14
2019-01-28T14:05:07.484Z,101417.10
2019-01-28T14:07:48.722Z,101409.50
2019-01-28T14:10:29.474Z,101408.34
2019-01-28T14:13:10.703Z,101403.05
2019-01-28T14:15:51.972Z,101409.59
2019-01-28T14:18:32.403Z,101419.25
2019-01-28T14:21:13.045Z,101414.73
2019-01-28T14:23:53.855Z,101421.34
2019-01-28T14:26:34.847Z,101422.17
2019-01-28T14:29:16.125Z,101421.34
2019-01-28T14:31:57.480Z,101434.66
2019-01-28T14:34:38.057Z,101439.94
2019-01-28T14:37:18.793Z,101450.48
2019-01-28T14:39:59.160Z,101443.89
2019-01-28T14:42:40.342Z,101452.02
2019-01-28T14:45:21.883Z,101446.73
2019-01-28T14:48:03.013Z,101453.20
2019-01-28T14:50:43.663Z,101459.94
2019-01-28T14:53:25.110Z,101457.30
2019-01-28T14:56:06.126Z,101459.54
2019-01-28T14:58:46.999Z,101469.26
2019-01-28T15:01:27.561Z,101478.05
2019-01-28T15:04:09.890Z,101470.36
2019-01-28T15:06:49.877Z,101468.20
2019-01-28T15:09:30.893Z,101473.84
2019-01-28T15:12:11.823Z,101475.89
2019-01-28T15:14:53.078Z,101474.31
2019-01-28T15:17:33.956Z,101475.64
2019-01-28T15:20:14.725Z,101482.23
2019-01-28T15:22:55.583Z,101484.75
2019-01-28T15:25:36.685Z,101484.05
2019-01-28T15:28:17.611Z,101483.47
2019-01-28T15:30:58.551Z,101479.52
2019-01-28T15:33:39.232Z,101479.16
2019-01-28T15:36:20.232Z,101478.57
2019-01-28T15:39:01.100Z,101482.74
2019-01-28T15:41:41.866Z,101485.97
2019-01-28T15:44:22.521Z,101492.31
2019-01-28T15:47:03.672Z,101489.91
2019-01-28T15:49:44.383Z,101488.75
2019-01-28T15:52:25.210Z,101488.86
2019-01-28T15:55:05.676Z,101498.45
2019-01-28T15:57:46.235Z,101499.16
2019-01-28T16:00:27.238Z,101498.80
2019-01-28T16:03:08.151Z,101505.25
2019-01-28T16:05:49.181Z,101506.35
2019-01-28T16:08:29.905Z,101510.41
2019-01-28T16:11:10.733Z,101500.27
2019-01-28T16:13:51.652Z,101503.84
2019-01-28T16:16:32.726Z,101508.41
2019-01-28T16:19:14.071Z,101501.95
2019-01-28T16:21:55.168Z,101505.42
2019-01-28T16:24:35.803Z,101500.38
2019-01-28T16:27:16.459Z,101496.17
2019-01-28T16:29:57.720Z,101500.96
2019-01-28T16:32:38.733Z,101497.00
2019-01-28T16:35:19.551Z,101493.79
2019-01-28T16:38:00.981Z,101496.65
2019-01-28T16:40:41.695Z,101496.65
2019-01-28T16:43:22.520Z,101487.77
2019-01-28T16:46:03.475Z,101494.85
2019-01-28T16:48:44.151Z,101488.52
2019-01-28T16:51:25.131Z,101491.63
2019-01-28T16:54:05.888Z,101491.16
2019-01-28T16:56:47.075Z,101495.81
2019-01-28T16:59:28.055Z,101498.20
2019-01-28T17:02:08.621Z,101496.52
2019-01-28T17:04:52.562Z,101490.55
2019-01-28T17:07:33.411Z,101484.87
2019-01-28T17:10:14.387Z,101479.38
2019-01-28T17:12:55.075Z,101484.30
2019-01-28T17:15:36.358Z,101491.16
2019-01-28T17:18:17.584Z,101482.28
2019-01-28T17:20:58.212Z,101481.56
2019-01-28T17:23:39.238Z,101476.16
2019-01-28T17:26:19.952Z,101468.61
2019-01-28T17:29:00.865Z,101470.98
2019-01-28T17:31:42.076Z,101466.55
2019-01-28T17:34:22.796Z,101466.55
2019-01-28T17:37:03.541Z,101462.36
2019-01-28T17:39:44.611Z,101459.98
2019-01-28T17:42:25.701Z,101457.09
2019-01-28T17:45:06.677Z,101449.56
2019-01-28T17:47:47.951Z,101450.63
2019-01-28T17:50:29.431Z,101443.55
2019-01-28T17:53:10.811Z,101438.76
2019-01-28T17:55:52.051Z,101444.77
2019-01-28T17:58:32.935Z,101446.92
2019-01-28T18:01:13.936Z,101442.36
2019-01-28T18:03:54.803Z,101444.26
2019-01-28T18:06:35.785Z,101445.12
2019-01-28T18:09:16.863Z,101442.12
2019-01-28T18:11:57.742Z,101440.92
2019-01-28T18:14:38.806Z,101442.47
2019-01-28T18:17:19.571Z,101437.53
2019-01-28T18:20:00.470Z,101440.30
2019-01-28T18:22:41.624Z,101431.28
2019-01-28T18:25:22.962Z,101432.85
2019-01-28T18:28:03.817Z,101440.50
2019-01-28T18:30:44.777Z,101437.95
2019-01-28T18:33:26.053Z,101427.56
2019-01-28T18:36:07.129Z,101413.20
2019-01-28T18:38:48.285Z,101407.45
2019-01-28T18:41:28.953Z,101416.53
2019-01-28T18:44:09.922Z,101408.39
2019-01-28T18:46:50.852Z,101417.73
2019-01-28T18:49:31.871Z,101417.35
2019-01-28T18:52:12.793Z,101414.73
2019-01-28T18:54:53.756Z,101412.33
2019-01-28T18:57:34.177Z,101418.20
2019-01-28T19:00:15.558Z,101413.51
2019-01-28T19:02:56.243Z,101408.38
2019-01-28T19:05:37.002Z,101399.39
2019-01-28T19:08:18.133Z,101387.19
2019-01-28T19:10:58.846Z,101383.23
2019-01-28T19:13:40.127Z,101383.02
2019-01-28T19:16:21.195Z,101391.73
2019-01-28T19:19:02.476Z,101400.58
2019-01-28T19:21:43.256Z,101398.17
2019-01-28T19:24:23.679Z,101398.14
2019-01-28T19:27:04.115Z,101396.69
2019-01-28T19:29:45.153Z,101399.56
2019-01-28T19:32:27.685Z,101392.70
2019-01-28T19:35:07.609Z,101390.56
2019-01-28T19:37:48.696Z,101387.34
2019-01-28T19:40:29.449Z,101378.84
2019-01-28T19:43:10.372Z,101372.38
2019-01-28T19:45:51.642Z,101366.97
2019-01-28T19:48:32.685Z,101366.38
2019-01-28T19:51:15.890Z,101368.39
2019-01-28T19:53:55.257Z,101366.78
2019-01-28T19:56:36.060Z,101368.55
2019-01-28T19:59:16.874Z,101360.63
2019-01-28T20:01:57.103Z,101355.47
2019-01-28T20:04:38.425Z,101360.09
2019-01-28T20:07:19.180Z,101360.94
2019-01-28T20:10:00.043Z,101356.59
2019-01-28T20:12:41.045Z,101350.98
2019-01-28T20:15:22.231Z,101345.48
2019-01-28T20:18:02.713Z,101342.13
2019-01-28T20:20:43.025Z,101343.00
2019-01-28T20:23:23.637Z,101336.66
2019-01-28T20:26:04.577Z,101337.35
2019-01-28T20:28:44.836Z,101340.43
2019-01-28T20:31:25.597Z,101335.37
2019-01-28T20:34:06.755Z,101330.23
2019-01-28T20:36:47.528Z,101334.39
2019-01-28T20:39:28.297Z,101328.77
2019-01-28T20:42:09.278Z,101316.70
2019-01-28T20:44:50.197Z,101321.24
2019-01-28T20:47:30.927Z,101330.41
2019-01-28T20:50:11.854Z,101332.29
2019-01-28T20:52:52.685Z,101336.59
2019-01-28T20:55:33.482Z,101340.56
2019-01-28T20:58:14.091Z,101332.20
2019-01-28T21:00:55.014Z,101322.20
2019-01-28T21:03:35.760Z,101324.84
2019-01-28T21:06:16.674Z,101329.58
2019-01-28T21:08:57.122Z,101330.38
2019-01-28T21:11:37.840Z,101325.71
2019-01-28T21:14:18.950Z,101327.66
2019-01-28T21:16:59.573Z,101324.35
2019-01-28T21:19:40.555Z,101324.03
2019-01-28T21:22:21.544Z,101330.33
2019-01-28T21:25:02.671Z,101338.09
2019-01-28T21:27:43.241Z,101336.02
2019-01-28T21:30:24.031Z,101337.25
2019-01-28T21:33:04.936Z,101331.87
2019-01-28T21:35:45.690Z,101321.61
2019-01-28T21:38:27.296Z,101318.70
2019-01-28T21:41:08.554Z,101318.58
2019-01-28T21:43:49.579Z,101315.88
2019-01-28T21:46:30.807Z,101315.12
2019-01-28T21:49:12.289Z,101312.73
2019-01-28T21:51:52.935Z,101302.90
2019-01-28T21:54:33.624Z,101306.12
2019-01-28T21:57:14.535Z,101313.84
2019-01-28T21:59:55.607Z,101312.41
2019-01-28T22:02:36.117Z,101309.58
2019-01-28T22:05:16.830Z,101315.47
2019-01-28T22:07:57.537Z,101309.41
2019-01-28T22:10:38.658Z,101305.14
2019-01-28T22:13:19.665Z,101308.28
2019-01-28T22:16:00.616Z,101311.30
2019-01-28T22:18:41.567Z,101310.84
2019-01-28T22:21:22.549Z,101301.89
2019-01-28T22:24:03.350Z,101314.92
2019-01-28T22:26:44.075Z,101306.34
2019-01-28T22:29:24.761Z,101307.80
2019-01-28T22:32:05.828Z,101304.57
2019-01-28T22:34:47.863Z,101307.08
2019-01-28T22:37:28.196Z,101312.47
2019-01-28T22:40:08.638Z,101325.28
2019-01-28T22:42:49.646Z,101322.05
2019-01-28T22:45:30.409Z,101314.42
2019-01-28T22:48:11.822Z,101317.84
2019-01-28T22:50:52.836Z,101322.98
2019-01-28T22:53:33.411Z,101332.45
2019-01-28T22:56:14.486Z,101327.19
2019-01-28T22:58:55.765Z,101334.11
2019-01-28T23:01:37.269Z,101337.96
2019-01-28T23:04:18.226Z,101333.33
2019-01-28T23:06:59.344Z,101332.00
2019-01-28T23:09:40.187Z,101345.37
2019-01-28T23:12:20.839Z,101336.16
2019-01-28T23:15:01.626Z,101334.16
2019-01-28T23:17:42.484Z,101345.25
2019-01-28T23:20:23.554Z,101339.83
2019-01-28T23:23:04.615Z,101333.61
2019-01-28T23:25:45.200Z,101337.65
2019-01-28T23:28:26.146Z,101338.37
2019-01-28T23:31:06.617Z,101328.68
2019-01-28T23:33:46.956Z,101341.69
2019-01-28T23:36:27.964Z,101342.43
2019-01-28T23:39:09.089Z,101340.04
2019-01-28T23:41:49.957Z,101356.88
2019-01-28T23:44:31.314Z,101354.72
2019-01-28T23:47:12.340Z,101365.80
2019-01-28T23:49:53.344Z,101362.66
2019-01-28T23:52:33.715Z,101367.80
2019-01-28T23:55:13.901Z,101378.52
2019-01-28T23:57:56.873Z,101380.20
